Time;durP1;ratioP1;P1;durP2;ratioP2;P2;SDS_P1;SDS_P2;PMS_P1;PMS_P2;Temp;Humidity;BMP_temperature;BMP_pressure;BME280_temperature;BME280_humidity;BME280_pressure;Samples;Min_cycle;Max_cycle;Signal;HPM_P1;HPM_P2
2023/10/06 00:01:21;;;;;;;14.45;7.88;;;11.30;99.90;;;;;;5070188;28;20447;-86
2023/10/06 00:03:48;;;;;;;11.73;7.68;;;11.30;99.90;;;;;;5071856;28;20020;-86
2023/10/06 00:06:22;;;;;;;10.05;7.05;;;11.20;99.90;;;;;;5070544;28;20070;-80
2023/10/06 00:08:51;;;;;;;14.88;7.78;;;11.20;99.90;;;;;;5073177;28;20012;-86
2023/10/06 00:11:37;;;;;;;11.68;7.13;;;11.10;99.90;;;;;;5070623;28;20559;-80
2023/10/06 00:14:07;;;;;;;17.27;8.43;;;11.10;99.90;;;;;;5061831;28;20041;-79
2023/10/06 00:16:41;;;;;;;14.95;7.20;;;11.10;99.90;;;;;;5071907;28;20023;-80
2023/10/06 00:19:26;;;;;;;13.10;7.38;;;11.00;99.90;;;;;;5067398;28;20062;-86
2023/10/06 00:22:03;;;;;;;12.32;7.47;;;11.00;99.90;;;;;;5057531;28;20079;-80
2023/10/06 00:24:31;;;;;;;13.00;6.90;;;11.00;99.90;;;;;;5061359;28;20111;-85
2023/10/06 00:26:58;;;;;;;10.30;6.60;;;10.90;99.90;;;;;;5052700;28;20421;-80
2023/10/06 00:29:24;;;;;;;11.70;8.15;;;10.90;99.90;;;;;;5053696;28;20443;-86
2023/10/06 00:31:50;;;;;;;13.73;7.45;;;10.80;99.90;;;;;;5057615;28;20052;-80
2023/10/06 00:34:22;;;;;;;15.68;8.57;;;10.70;99.90;;;;;;5055816;28;20105;-80
2023/10/06 00:36:51;;;;;;;14.57;7.72;;;10.70;99.90;;;;;;5052814;28;20028;-80
2023/10/06 00:39:25;;;;;;;11.65;8.07;;;10.60;99.90;;;;;;5068075;28;20528;-85
2023/10/06 00:42:06;;;;;;;12.05;7.45;;;10.60;99.90;;;;;;5056363;28;20430;-85
2023/10/06 00:44:32;;;;;;;16.40;7.93;;;10.50;99.90;;;;;;5052258;28;20063;-85
2023/10/06 00:46:58;;;;;;;13.18;8.75;;;10.50;99.90;;;;;;5051899;28;20562;-85
2023/10/06 00:49:28;;;;;;;16.38;8.68;;;10.40;99.90;;;;;;5053520;28;20029;-85
2023/10/06 00:51:55;;;;;;;13.25;8.25;;;10.30;99.90;;;;;;5051633;28;20437;-85
2023/10/06 00:54:25;;;;;;;12.50;7.63;;;10.30;99.90;;;;;;5059833;28;20481;-79
2023/10/06 00:56:57;;;;;;;12.55;7.78;;;10.30;99.90;;;;;;5056557;28;20025;-80
2023/10/06 00:59:26;;;;;;;13.70;7.28;;;10.20;99.90;;;;;;5053549;28;20028;-79
2023/10/06 01:01:52;;;;;;;12.48;7.78;;;10.20;99.90;;;;;;5052831;28;20032;-85
2023/10/06 01:04:24;;;;;;;13.25;8.20;;;10.10;99.90;;;;;;5053351;28;20039;-84
2023/10/06 01:06:54;;;;;;;14.13;8.35;;;10.10;99.90;;;;;;5051842;28;20029;-85
2023/10/06 01:09:30;;;;;;;12.73;7.25;;;10.10;99.90;;;;;;5042283;28;20055;-79
2023/10/06 01:11:57;;;;;;;12.63;7.57;;;10.10;99.90;;;;;;5059752;28;20029;-79
2023/10/06 01:14:27;;;;;;;11.85;6.90;;;10.00;99.90;;;;;;5071819;28;20382;-79
2023/10/06 01:17:09;;;;;;;9.70;6.82;;;10.00;99.90;;;;;;5067697;28;20021;-80
2023/10/06 01:19:35;;;;;;;9.73;6.32;;;10.00;99.90;;;;;;5050124;28;20016;-85
2023/10/06 01:24:45;;;;;;;12.38;7.28;;;9.90;99.90;;;;;;5072497;28;20081;-79
2023/10/06 01:27:11;;;;;;;11.38;7.07;;;9.90;99.90;;;;;;5072150;28;20103;-79
2023/10/06 01:29:38;;;;;;;9.38;6.45;;;9.80;99.90;;;;;;5071179;28;20025;-85
2023/10/06 01:32:05;;;;;;;16.73;7.05;;;9.80;99.90;;;;;;5070572;28;20162;-85
2023/10/06 01:34:40;;;;;;;11.88;6.85;;;9.80;99.90;;;;;;5051774;28;20393;-85
2023/10/06 01:37:12;;;;;;;13.45;6.40;;;9.80;99.90;;;;;;5064270;28;20027;-79
2023/10/06 01:39:39;;;;;;;9.80;6.97;;;9.80;99.90;;;;;;5061265;28;20041;-79
2023/10/06 01:42:09;;;;;;;12.05;6.85;;;9.70;99.90;;;;;;5048539;28;20121;-79
2023/10/06 01:44:35;;;;;;;14.23;7.55;;;9.70;99.90;;;;;;5046384;28;20111;-85
2023/10/06 01:47:04;;;;;;;10.15;7.40;;;9.70;99.90;;;;;;5052113;28;20085;-85
2023/10/06 01:49:31;;;;;;;12.23;7.20;;;9.70;99.90;;;;;;5059770;28;20446;-79
2023/10/06 01:51:57;;;;;;;12.50;7.70;;;9.70;99.90;;;;;;5070989;28;20036;-79
2023/10/06 01:54:27;;;;;;;13.32;7.03;;;9.60;99.90;;;;;;5071408;28;20398;-79
2023/10/06 01:56:54;;;;;;;10.00;6.97;;;9.60;99.90;;;;;;5058870;28;20016;-85
2023/10/06 01:59:20;;;;;;;12.68;6.90;;;9.60;99.90;;;;;;5071078;28;20028;-85
2023/10/06 02:01:47;;;;;;;12.02;6.50;;;9.60;99.90;;;;;;5064273;28;20029;-85
2023/10/06 02:04:19;;;;;;;11.07;7.18;;;9.60;99.90;;;;;;5049109;28;20470;-85
2023/10/06 02:06:45;;;;;;;14.85;7.10;;;9.50;99.90;;;;;;5070706;28;20044;-85
2023/10/06 02:09:20;;;;;;;14.30;7.45;;;9.50;99.90;;;;;;5063884;28;20033;-85
2023/10/06 02:11:49;;;;;;;14.60;7.18;;;9.50;99.90;;;;;;5072142;28;20031;-85
2023/10/06 02:14:18;;;;;;;13.63;7.57;;;9.50;99.90;;;;;;5069838;28;20100;-85
2023/10/06 02:16:44;;;;;;;11.23;7.00;;;9.50;99.90;;;;;;5063504;28;20429;-85
2023/10/06 02:19:11;;;;;;;12.23;7.05;;;9.50;99.90;;;;;;5070104;28;20020;-85
2023/10/06 02:21:44;;;;;;;12.10;6.93;;;9.50;99.90;;;;;;5059437;28;20017;-85
2023/10/06 02:24:12;;;;;;;13.10;7.03;;;9.50;99.90;;;;;;5070959;28;20434;-85
2023/10/06 02:26:38;;;;;;;11.43;6.70;;;9.50;99.90;;;;;;5070869;28;20390;-85
2023/10/06 02:29:16;;;;;;;14.13;7.82;;;9.50;99.90;;;;;;5071432;28;20025;-79
2023/10/06 02:31:42;;;;;;;10.77;6.40;;;9.50;99.90;;;;;;5071409;28;20062;-84
2023/10/06 02:34:13;;;;;;;8.68;6.60;;;9.50;99.90;;;;;;5071784;28;20099;-79
2023/10/06 02:36:41;;;;;;;9.55;6.18;;;9.40;99.90;;;;;;5071146;28;20099;-85
2023/10/06 02:39:09;;;;;;;10.93;6.85;;;9.40;99.90;;;;;;5065241;28;20053;-79
2023/10/06 02:41:35;;;;;;;9.25;6.60;;;9.40;99.90;;;;;;5038180;28;20026;-79
2023/10/06 02:44:13;;;;;;;13.68;6.72;;;9.30;99.90;;;;;;5052138;28;20040;-84
2023/10/06 02:46:39;;;;;;;9.73;6.38;;;9.20;99.90;;;;;;5053396;28;20020;-79
2023/10/06 02:49:08;;;;;;;10.00;6.20;;;9.20;99.90;;;;;;5055938;28;20037;-85
2023/10/06 02:51:47;;;;;;;11.15;6.80;;;9.10;99.90;;;;;;5056498;28;20021;-79
2023/10/06 02:54:21;;;;;;;11.75;6.40;;;9.00;99.90;;;;;;5056030;28;20151;-79
2023/10/06 02:56:47;;;;;;;11.25;6.55;;;9.00;99.90;;;;;;5056047;28;20020;-79
2023/10/06 02:59:26;;;;;;;10.60;6.88;;;8.90;99.90;;;;;;5056428;28;20029;-85
2023/10/06 03:02:00;;;;;;;7.80;6.22;;;8.90;99.90;;;;;;5054790;28;20036;-79
2023/10/06 03:04:27;;;;;;;7.65;5.68;;;8.90;99.90;;;;;;5055751;28;20020;-79
2023/10/06 03:06:57;;;;;;;9.73;6.35;;;8.80;99.90;;;;;;5054577;28;20044;-85
2023/10/06 03:12:11;;;;;;;10.82;6.22;;;8.80;99.90;;;;;;5055864;28;20022;-85
2023/10/06 03:14:39;;;;;;;8.98;5.72;;;8.70;99.90;;;;;;5042389;28;20032;-84
2023/10/06 03:17:09;;;;;;;7.75;5.43;;;8.70;99.90;;;;;;5055386;28;20050;-79
2023/10/06 03:19:40;;;;;;;10.63;6.20;;;8.60;99.90;;;;;;5062283;28;20028;-79
2023/10/06 03:22:09;;;;;;;12.27;6.20;;;8.60;99.90;;;;;;5074661;28;20037;-78
2023/10/06 03:24:41;;;;;;;8.38;6.20;;;8.50;99.90;;;;;;5073460;28;20025;-79
2023/10/06 03:27:12;;;;;;;9.80;6.13;;;8.50;99.90;;;;;;5063263;28;20106;-85
2023/10/06 03:29:55;;;;;;;9.57;5.85;;;8.40;99.90;;;;;;5055898;28;20036;-85
2023/10/06 03:32:32;;;;;;;;;;;8.30;99.90;;;;;;5072922;28;20488;-79
2023/10/06 03:35:08;;;;;;;19.63;7.53;;;8.20;99.90;;;;;;5073082;28;19904;-84
2023/10/06 03:37:36;;;;;;;12.48;6.30;;;8.20;99.90;;;;;;5072928;28;20041;-84
2023/10/06 03:40:11;;;;;;;10.68;6.15;;;8.10;99.90;;;;;;5052901;28;20363;-80
2023/10/06 03:42:37;;;;;;;8.45;6.50;;;8.20;99.90;;;;;;5058745;28;20028;-85
2023/10/06 03:45:23;;;;;;;10.48;6.88;;;8.10;99.90;;;;;;5070069;28;20025;-84
2023/10/06 03:47:49;;;;;;;10.57;6.85;;;8.10;99.90;;;;;;5053200;28;20032;-84
2023/10/06 03:50:16;;;;;;;10.25;6.97;;;8.10;99.90;;;;;;5053698;28;20398;-85
2023/10/06 03:52:42;;;;;;;12.68;7.40;;;8.10;99.90;;;;;;5053230;28;20482;-79
2023/10/06 03:55:08;;;;;;;10.30;7.35;;;8.10;99.90;;;;;;5054665;28;20074;-85
2023/10/06 03:57:34;;;;;;;9.88;6.70;;;8.00;99.90;;;;;;5052681;28;20021;-85
2023/10/06 03:59:59;;;;;;;8.98;6.53;;;8.00;99.90;;;;;;5053114;28;20028;-85
2023/10/06 04:02:27;;;;;;;8.98;6.82;;;8.00;99.90;;;;;;5054737;28;20060;-84
2023/10/06 04:04:53;;;;;;;8.93;5.95;;;8.00;99.90;;;;;;5053034;28;20021;-79
2023/10/06 04:07:19;;;;;;;7.28;5.53;;;8.00;99.90;;;;;;5049768;28;20025;-85
2023/10/06 04:09:49;;;;;;;9.35;6.78;;;7.90;99.90;;;;;;5054336;28;20036;-79
2023/10/06 04:12:14;;;;;;;11.10;7.30;;;7.90;99.90;;;;;;5069120;28;20478;-78
2023/10/06 04:14:40;;;;;;;8.40;6.57;;;7.90;99.90;;;;;;5063988;28;20111;-78
2023/10/06 04:17:06;;;;;;;10.55;7.53;;;7.90;99.90;;;;;;5068682;28;20016;-84
2023/10/06 04:19:34;;;;;;;9.57;6.75;;;7.90;99.90;;;;;;5072408;28;20517;-78
2023/10/06 04:22:03;;;;;;;16.00;8.13;;;7.90;99.90;;;;;;5073060;28;20478;-85
2023/10/06 04:24:29;;;;;;;16.80;7.40;;;7.90;99.90;;;;;;5067114;28;20021;-79
2023/10/06 04:26:56;;;;;;;11.80;7.10;;;7.90;99.90;;;;;;5068044;28;20508;-79
2023/10/06 04:29:25;;;;;;;9.98;7.10;;;7.90;99.90;;;;;;5073431;28;20078;-84
2023/10/06 04:31:51;;;;;;;9.88;6.75;;;7.90;99.90;;;;;;5072451;28;20116;-85
2023/10/06 04:34:21;;;;;;;13.55;7.85;;;7.90;99.90;;;;;;5072009;28;20119;-85
2023/10/06 04:36:48;;;;;;;12.15;6.80;;;8.00;99.90;;;;;;5065706;28;20389;-79
2023/10/06 04:39:16;;;;;;;10.38;6.78;;;8.00;99.90;;;;;;5067779;28;20103;-78
2023/10/06 04:41:42;;;;;;;9.75;6.65;;;8.00;99.90;;;;;;5050787;28;20033;-79
2023/10/06 04:44:10;;;;;;;8.73;6.85;;;8.10;99.90;;;;;;5051155;28;20033;-79
2023/10/06 04:46:37;;;;;;;9.20;6.38;;;8.20;99.90;;;;;;5043814;28;20031;-85
2023/10/06 04:49:02;;;;;;;9.88;7.10;;;8.20;99.90;;;;;;5050886;28;20041;-85
2023/10/06 04:51:28;;;;;;;10.65;8.63;;;8.30;99.90;;;;;;5053834;28;20029;-85
2023/10/06 04:53:57;;;;;;;9.73;7.25;;;8.30;99.90;;;;;;5047827;28;20039;-85
2023/10/06 04:56:22;;;;;;;12.75;7.40;;;8.40;99.90;;;;;;5051752;28;20025;-85
2023/10/06 04:58:48;;;;;;;10.85;8.48;;;8.40;99.90;;;;;;5048240;28;20103;-85
2023/10/06 05:01:16;;;;;;;12.63;8.30;;;8.50;99.90;;;;;;5056919;28;20025;-85
2023/10/06 05:03:45;;;;;;;15.95;8.65;;;8.60;99.90;;;;;;5055431;28;20037;-85
2023/10/06 05:06:17;;;;;;;11.35;8.30;;;8.60;99.90;;;;;;5058531;28;20078;-85
2023/10/06 05:08:47;;;;;;;11.48;7.25;;;8.70;99.90;;;;;;5055004;28;20025;-85
2023/10/06 05:11:14;;;;;;;14.82;9.63;;;8.70;99.90;;;;;;5057752;28;20546;-85
2023/10/06 05:13:40;;;;;;;20.52;12.13;;;8.60;99.90;;;;;;5070008;28;20035;-79
2023/10/06 05:16:06;;;;;;;29.02;15.65;;;8.60;99.90;;;;;;5050649;28;20014;-78
2023/10/06 05:18:33;;;;;;;48.08;25.30;;;8.60;99.90;;;;;;5067285;28;20035;-78
2023/10/06 05:20:59;;;;;;;52.78;29.23;;;8.60;99.90;;;;;;5060101;28;20363;-78
2023/10/06 05:23:26;;;;;;;38.45;20.83;;;8.60;99.90;;;;;;5065457;28;20024;-77
2023/10/06 05:25:54;;;;;;;32.38;19.25;;;8.60;99.90;;;;;;5052211;28;20025;-78
2023/10/06 05:28:20;;;;;;;36.22;20.70;;;8.60;99.90;;;;;;5064502;28;20398;-78
2023/10/06 05:30:46;;;;;;;17.92;9.82;;;8.70;99.90;;;;;;5058391;28;20120;-77
2023/10/06 05:33:14;;;;;;;18.35;8.75;;;8.70;99.90;;;;;;5056502;28;20124;-83
2023/10/06 05:35:39;;;;;;;18.20;9.70;;;8.80;99.90;;;;;;5055828;28;20417;-78
2023/10/06 05:38:08;;;;;;;16.90;9.68;;;8.80;99.90;;;;;;5051928;28;20033;-77
2023/10/06 05:40:34;;;;;;;18.92;11.43;;;8.80;99.90;;;;;;5050718;28;20040;-77
2023/10/06 05:43:00;;;;;;;35.97;22.70;;;8.90;99.90;;;;;;5062131;28;20103;-78
2023/10/06 05:45:29;;;;;;;39.30;25.77;;;9.00;99.90;;;;;;5049088;28;20546;-77
2023/10/06 05:47:58;;;;;;;41.38;29.30;;;9.00;99.90;;;;;;5053630;28;20025;-83
2023/10/06 05:50:27;;;;;;;65.55;44.38;;;9.00;99.90;;;;;;5050362;28;20501;-83
2023/10/06 05:53:04;;;;;;;75.70;47.85;;;9.10;99.90;;;;;;5052549;28;20024;-83
2023/10/06 05:55:35;;;;;;;60.55;28.70;;;9.10;99.90;;;;;;5050249;28;20035;-83
2023/10/06 05:58:01;;;;;;;59.55;37.67;;;9.20;99.90;;;;;;5051668;28;20021;-79
2023/10/06 06:00:30;;;;;;;57.22;27.48;;;9.20;99.90;;;;;;5049471;28;20058;-78
2023/10/06 06:02:58;;;;;;;39.70;18.20;;;9.20;99.90;;;;;;5050907;28;20112;-79
2023/10/06 06:05:25;;;;;;;36.92;16.33;;;9.20;99.90;;;;;;5053746;28;20083;-78
2023/10/06 06:07:51;;;;;;;33.25;15.50;;;9.20;99.90;;;;;;5054391;28;20036;-78
2023/10/06 06:10:19;;;;;;;20.55;13.25;;;9.20;99.90;;;;;;5049926;28;20041;-78
2023/10/06 06:12:47;;;;;;;22.42;13.43;;;9.20;99.90;;;;;;5065027;28;20036;-83
2023/10/06 06:15:13;;;;;;;25.85;14.00;;;9.20;99.90;;;;;;5060113;28;20032;-78
2023/10/06 06:17:40;;;;;;;34.72;16.25;;;9.20;99.90;;;;;;5061013;28;20021;-78
2023/10/06 06:20:14;;;;;;;49.17;22.73;;;9.20;99.90;;;;;;5069576;28;20020;-83
2023/10/06 06:22:43;;;;;;;39.20;16.48;;;9.30;99.90;;;;;;5050023;28;20395;-78
2023/10/06 06:25:09;;;;;;;35.53;18.05;;;9.30;99.90;;;;;;5068718;28;20563;-83
2023/10/06 06:27:35;;;;;;;33.78;16.95;;;9.30;99.90;;;;;;5055741;28;20158;-78
2023/10/06 06:30:00;;;;;;;41.90;20.58;;;9.40;99.90;;;;;;5067474;28;20608;-84
2023/10/06 06:32:26;;;;;;;34.85;18.38;;;9.40;99.90;;;;;;5057001;28;20150;-79
2023/10/06 06:34:53;;;;;;;40.17;18.33;;;9.50;99.90;;;;;;5069086;28;20572;-79
2023/10/06 06:37:20;;;;;;;29.92;16.25;;;9.50;99.90;;;;;;5066785;28;20431;-78
2023/10/06 06:39:46;;;;;;;32.35;18.88;;;9.50;99.90;;;;;;5069048;28;20533;-81
2023/10/06 06:42:12;;;;;;;56.15;23.55;;;9.50;99.90;;;;;;5061256;28;20032;-76
2023/10/06 06:44:37;;;;;;;74.63;28.17;;;9.60;99.90;;;;;;5061869;28;20032;-76
2023/10/06 06:47:03;;;;;;;70.35;27.55;;;9.70;99.90;;;;;;5054483;28;20146;-78
2023/10/06 06:49:29;;;;;;;48.95;20.05;;;9.70;99.90;;;;;;5054339;28;20060;-78
2023/10/06 06:51:58;;;;;;;50.58;23.15;;;9.80;99.90;;;;;;5073961;28;20032;-82
2023/10/06 06:54:25;;;;;;;28.25;14.68;;;9.80;99.90;;;;;;5073155;28;20066;-76
2023/10/06 06:56:50;;;;;;;41.28;18.88;;;9.90;99.90;;;;;;5073781;28;20548;-82
2023/10/06 06:59:19;;;;;;;39.22;17.48;;;10.10;99.90;;;;;;5064412;28;20022;-76
2023/10/06 07:01:45;;;;;;;24.65;14.48;;;10.10;99.90;;;;;;5072880;28;20370;-76
2023/10/06 07:04:12;;;;;;;32.55;15.95;;;10.20;99.90;;;;;;5067468;28;20090;-82
2023/10/06 07:06:37;;;;;;;23.95;12.82;;;10.20;99.90;;;;;;5074072;28;20028;-82
2023/10/06 07:09:12;;;;;;;44.97;16.98;;;10.20;99.90;;;;;;5078216;28;20432;-76
2023/10/06 07:11:39;;;;;;;25.02;11.40;;;10.20;99.90;;;;;;5073816;28;20029;-82
2023/10/06 07:14:05;;;;;;;21.25;12.60;;;10.20;99.90;;;;;;5071886;28;20021;-76
2023/10/06 07:16:33;;;;;;;29.90;13.07;;;10.20;99.90;;;;;;5073190;28;20519;-75
2023/10/06 07:18:59;;;;;;;59.50;22.15;;;10.20;99.90;;;;;;5072889;28;20103;-82
2023/10/06 07:21:24;;;;;;;38.47;17.13;;;10.30;99.90;;;;;;5072699;28;20104;-82
2023/10/06 07:23:52;;;;;;;36.05;15.18;;;10.40;99.90;;;;;;5072288;28;20052;-76
2023/10/06 07:26:17;;;;;;;28.30;12.60;;;10.50;99.90;;;;;;5074181;28;20025;-84
2023/10/06 07:28:44;;;;;;;28.48;13.02;;;10.50;99.90;;;;;;5071020;28;20025;-76
2023/10/06 07:31:11;;;;;;;38.30;17.80;;;10.60;99.90;;;;;;5044426;28;20089;-82
2023/10/06 07:33:37;;;;;;;31.77;14.95;;;10.70;99.90;;;;;;5067497;28;20020;-82
2023/10/06 07:36:12;;;;;;;15.45;9.50;;;10.80;99.90;;;;;;5065927;28;20021;-82
2023/10/06 07:38:37;;;;;;;21.33;10.80;;;10.90;99.90;;;;;;5068024;28;20082;-82
2023/10/06 07:41:03;;;;;;;13.43;8.98;;;10.90;99.90;;;;;;5063056;28;20060;-79
2023/10/06 07:43:29;;;;;;;31.35;15.88;;;11.00;99.90;;;;;;5072174;28;20031;-82
2023/10/06 07:45:54;;;;;;;21.67;12.38;;;11.20;99.90;;;;;;5073120;28;20017;-82
2023/10/06 07:48:20;;;;;;;32.97;15.60;;;11.40;99.90;;;;;;5073773;28;20031;-75
2023/10/06 07:50:46;;;;;;;27.50;15.15;;;11.60;99.90;;;;;;5074260;28;20040;-76
2023/10/06 07:53:12;;;;;;;26.35;15.52;;;11.90;99.90;;;;;;5073602;28;20070;-76
2023/10/06 07:55:40;;;;;;;36.05;20.15;;;12.10;99.90;;;;;;5072909;28;20024;-76
2023/10/06 07:58:08;;;;;;;47.30;22.10;;;12.20;99.90;;;;;;5072826;28;20017;-82
2023/10/06 08:00:38;;;;;;;38.70;20.15;;;12.10;99.90;;;;;;5052118;28;20025;-82
2023/10/06 08:03:04;;;;;;;42.05;20.00;;;12.10;99.90;;;;;;5061155;28;20024;-76
2023/10/06 08:05:30;;;;;;;47.10;21.33;;;12.20;99.90;;;;;;5074062;28;20035;-82
2023/10/06 08:07:59;;;;;;;40.22;19.17;;;12.20;99.90;;;;;;5071744;28;20375;-77
2023/10/06 08:10:25;;;;;;;43.17;20.58;;;12.20;99.90;;;;;;5072411;28;20032;-82
2023/10/06 08:12:52;;;;;;;42.33;20.15;;;12.30;99.90;;;;;;5073460;28;20035;-76
2023/10/06 08:15:20;;;;;;;48.42;22.15;;;12.40;99.90;;;;;;5072940;28;20029;-83
2023/10/06 08:17:50;;;;;;;51.88;24.02;;;12.40;99.90;;;;;;5071886;28;20429;-76
2023/10/06 08:20:16;;;;;;;49.72;24.58;;;12.40;99.90;;;;;;5060515;28;20459;-77
2023/10/06 08:22:46;;;;;;;54.25;26.08;;;12.50;99.90;;;;;;5039340;28;20074;-83
2023/10/06 08:25:33;;;;;;;50.40;26.02;;;12.60;99.90;;;;;;5053849;28;20106;-83
2023/10/06 08:28:04;;;;;;;50.88;27.70;;;12.80;99.90;;;;;;5052778;28;20404;-77
2023/10/06 08:30:32;;;;;;;52.63;28.95;;;12.80;99.90;;;;;;5052671;28;20495;-76
2023/10/06 08:32:59;;;;;;;49.05;26.75;;;12.90;99.90;;;;;;5052599;28;20056;-76
2023/10/06 08:35:26;;;;;;;48.13;28.17;;;12.90;99.90;;;;;;5053050;28;20013;-81
2023/10/06 08:37:52;;;;;;;53.95;29.20;;;13.10;99.90;;;;;;5052714;28;20025;-76
2023/10/06 08:40:22;;;;;;;57.17;30.95;;;13.10;99.90;;;;;;5052642;28;20055;-76
2023/10/06 08:42:53;;;;;;;48.50;31.70;;;13.20;99.90;;;;;;5064779;28;20074;-83
2023/10/06 08:45:21;;;;;;;44.75;26.48;;;13.20;99.90;;;;;;5071723;28;20462;-76
2023/10/06 08:47:49;;;;;;;45.90;28.30;;;13.20;99.90;;;;;;5073552;28;20032;-77
2023/10/06 08:50:20;;;;;;;49.58;29.00;;;13.10;99.90;;;;;;5052156;28;20060;-77
2023/10/06 08:52:50;;;;;;;42.30;27.52;;;13.10;99.90;;;;;;5064407;28;20023;-77
2023/10/06 08:55:17;;;;;;;48.97;28.35;;;13.10;99.90;;;;;;5042715;28;20087;-77
2023/10/06 08:57:47;;;;;;;37.75;23.20;;;13.10;99.90;;;;;;5067584;28;20028;-83
2023/10/06 09:00:17;;;;;;;43.92;23.02;;;13.10;99.90;;;;;;5071610;28;20017;-77
2023/10/06 09:02:46;;;;;;;36.42;20.45;;;13.00;99.90;;;;;;5071821;28;20032;-83
2023/10/06 09:05:13;;;;;;;34.22;21.33;;;13.10;99.90;;;;;;5071093;28;20416;-83
2023/10/06 09:08:00;;;;;;;25.92;18.30;;;13.30;99.90;;;;;;5069946;28;20021;-76
2023/10/06 09:10:30;;;;;;;28.13;17.38;;;13.30;99.90;;;;;;5061915;28;20032;-77
2023/10/06 09:13:04;;;;;;;28.50;18.90;;;13.30;99.90;;;;;;5071366;28;20025;-83
2023/10/06 09:15:30;;;;;;;28.80;17.70;;;13.50;99.90;;;;;;5067832;28;20059;-83
2023/10/06 09:17:57;;;;;;;26.42;17.85;;;13.70;99.90;;;;;;5070095;28;20028;-77
2023/10/06 09:20:32;;;;;;;34.17;19.65;;;13.90;99.90;;;;;;5067483;28;20028;-76
2023/10/06 09:23:01;;;;;;;34.55;19.38;;;14.00;99.90;;;;;;5066956;28;20024;-83
2023/10/06 09:25:27;;;;;;;31.23;19.38;;;14.10;99.90;;;;;;5046669;28;20475;-84
2023/10/06 09:28:04;;;;;;;28.90;19.88;;;14.10;99.90;;;;;;5046394;28;20457;-84
2023/10/06 09:30:45;;;;;;;34.13;19.20;;;14.10;99.90;;;;;;5052382;28;20075;-84
2023/10/06 09:33:11;;;;;;;25.58;17.00;;;14.30;99.90;;;;;;5049440;28;20028;-84
2023/10/06 09:35:37;;;;;;;30.38;17.70;;;14.50;99.90;;;;;;5052962;28;20021;-84
2023/10/06 09:38:16;;;;;;;26.77;16.75;;;14.60;99.90;;;;;;5057486;28;20032;-84
2023/10/06 09:40:46;;;;;;;29.70;17.00;;;14.80;99.90;;;;;;5054549;28;20585;-83
2023/10/06 09:43:17;;;;;;;23.17;15.57;;;15.00;99.90;;;;;;5051580;28;20067;-84
2023/10/06 09:45:43;;;;;;;28.95;17.33;;;15.20;99.90;;;;;;5057236;28;20433;-83
2023/10/06 09:48:18;;;;;;;27.15;16.65;;;15.20;99.90;;;;;;5049035;28;20064;-84
2023/10/06 09:50:46;;;;;;;27.55;15.93;;;15.10;99.90;;;;;;5055483;28;20513;-83
2023/10/06 09:53:12;;;;;;;24.15;16.15;;;15.00;99.90;;;;;;5052617;28;20049;-82
2023/10/06 09:55:41;;;;;;;35.60;18.38;;;14.90;99.90;;;;;;5058242;28;20031;-84
2023/10/06 09:58:08;;;;;;;29.13;17.85;;;14.80;99.90;;;;;;5059521;28;20029;-84
2023/10/06 10:00:39;;;;;;;27.13;16.70;;;14.60;99.90;;;;;;5060703;28;20028;-84
2023/10/06 10:03:14;;;;;;;24.55;15.88;;;14.50;99.90;;;;;;5063456;28;20530;-85
2023/10/06 10:05:42;;;;;;;23.10;14.88;;;14.50;99.90;;;;;;5052283;28;20025;-82
2023/10/06 10:08:07;;;;;;;27.92;14.45;;;14.60;99.90;;;;;;5055682;28;20121;-78
2023/10/06 10:10:43;;;;;;;25.65;14.48;;;14.90;99.90;;;;;;5051954;28;20037;-77
2023/10/06 10:13:27;;;;;;;23.15;13.80;;;15.00;99.90;;;;;;5057639;28;20048;-84
2023/10/06 10:16:09;;;;;;;26.52;14.38;;;15.00;99.90;;;;;;5059774;28;20025;-83
2023/10/06 10:18:41;;;;;;;24.83;13.27;;;15.00;99.90;;;;;;5063810;28;20032;-85
2023/10/06 10:21:11;;;;;;;18.65;11.77;;;14.90;99.90;;;;;;5062418;28;20025;-85
2023/10/06 10:23:43;;;;;;;16.75;11.40;;;14.90;99.90;;;;;;5048844;28;20041;-84
2023/10/06 10:26:22;;;;;;;15.38;9.88;;;14.90;99.90;;;;;;5053067;28;20113;-84
2023/10/06 10:29:12;;;;;;;15.18;8.60;;;14.90;99.90;;;;;;5052773;28;20025;-85
2023/10/06 10:31:51;;;;;;;10.77;8.55;;;14.90;99.90;;;;;;5063623;28;20028;-86
2023/10/06 10:34:21;;;;;;;11.40;6.72;;;14.90;99.90;;;;;;5060589;28;20033;-85
2023/10/06 10:36:54;;;;;;;7.60;5.70;;;15.00;99.90;;;;;;5058120;28;20482;-84
2023/10/06 10:39:21;;;;;;;11.68;6.00;;;14.90;99.90;;;;;;5056867;28;20060;-85
2023/10/06 10:41:47;;;;;;;9.48;5.90;;;15.00;99.90;;;;;;5051838;28;20079;-84
2023/10/06 10:44:14;;;;;;;10.30;6.15;;;15.00;99.90;;;;;;5064803;28;20470;-84
2023/10/06 10:46:48;;;;;;;7.25;5.60;;;14.90;99.90;;;;;;5056694;28;20497;-84
2023/10/06 10:49:18;;;;;;;14.05;6.50;;;14.90;99.90;;;;;;5065551;28;20040;-84
2023/10/06 10:51:57;;;;;;;14.55;6.32;;;14.90;99.90;;;;;;5063195;28;20025;-87
2023/10/06 10:54:26;;;;;;;14.35;6.57;;;15.00;99.90;;;;;;5058867;28;20024;-85
2023/10/06 10:56:53;;;;;;;11.65;6.25;;;15.10;99.90;;;;;;5068503;28;20017;-86
2023/10/06 10:59:22;;;;;;;11.35;6.15;;;15.20;99.90;;;;;;5056837;28;20029;-85
2023/10/06 11:01:53;;;;;;;9.13;5.40;;;15.40;99.90;;;;;;5058823;28;20029;-84
2023/10/06 11:06:56;;;;;;;8.45;5.15;;;15.80;94.90;;;;;;5046883;28;20032;-85
2023/10/06 11:09:40;;;;;;;10.25;5.38;;;15.90;92.30;;;;;;5054764;28;20071;-85
2023/10/06 11:12:22;;;;;;;6.28;4.45;;;16.00;91.90;;;;;;5069131;28;20067;-85
2023/10/06 11:15:14;;;;;;;7.13;4.35;;;16.20;91.00;;;;;;5053676;28;20438;-79
2023/10/06 11:17:43;;;;;;;8.27;4.63;;;16.30;89.40;;;;;;5041958;28;20044;-77
2023/10/06 11:20:16;;;;;;;7.68;4.95;;;16.40;87.20;;;;;;5063132;28;20017;-77
2023/10/06 11:23:11;;;;;;;7.63;4.28;;;16.40;86.10;;;;;;5044452;28;20033;-78
2023/10/06 11:25:50;;;;;;;11.95;5.13;;;16.40;82.00;;;;;;5054534;28;20028;-78
2023/10/06 11:28:16;;;;;;;6.25;4.15;;;16.30;78.10;;;;;;5053002;28;20029;-86
2023/10/06 11:30:42;;;;;;;7.28;4.60;;;16.30;80.40;;;;;;5056992;28;20045;-78
2023/10/06 11:33:10;;;;;;;7.05;4.60;;;16.40;83.70;;;;;;5052355;28;20029;-79
2023/10/06 11:35:40;;;;;;;7.50;3.60;;;16.60;84.20;;;;;;5054177;28;20033;-79
2023/10/06 11:38:10;;;;;;;7.68;3.55;;;16.40;77.20;;;;;;5060078;28;20060;-79
2023/10/06 11:40:37;;;;;;;8.15;4.18;;;16.60;76.70;;;;;;5051706;28;20143;-78
2023/10/06 11:43:15;;;;;;;4.63;3.35;;;16.60;74.60;;;;;;5050726;28;20037;-77
2023/10/06 11:45:44;;;;;;;6.57;3.60;;;16.80;77.90;;;;;;5056145;28;20106;-78
2023/10/06 11:48:23;;;;;;;8.27;3.88;;;16.80;74.40;;;;;;5061651;28;20048;-80
2023/10/06 11:50:58;;;;;;;10.35;4.07;;;16.70;71.50;;;;;;5055722;28;20033;-86
2023/10/06 11:53:23;;;;;;;12.07;5.15;;;16.70;74.60;;;;;;5051889;28;20068;-86
2023/10/06 11:55:52;;;;;;;8.93;5.18;;;16.50;73.50;;;;;;5051519;28;20051;-86
2023/10/06 11:58:40;;;;;;;8.13;5.50;;;16.50;74.90;;;;;;5051831;28;20074;-86
2023/10/06 12:01:32;;;;;;;8.30;3.38;;;16.60;75.30;;;;;;5050925;28;20060;-85
2023/10/06 12:04:01;;;;;;;5.03;2.90;;;16.50;72.00;;;;;;5052387;28;20090;-85
2023/10/06 12:06:39;;;;;;;8.85;3.55;;;16.30;72.10;;;;;;5054560;28;20040;-86
2023/10/06 12:09:08;;;;;;;7.40;3.97;;;16.10;73.10;;;;;;5040437;28;20047;-87
2023/10/06 12:11:33;;;;;;;9.18;4.30;;;16.00;73.80;;;;;;5064733;28;20037;-86
2023/10/06 12:13:59;;;;;;;4.80;3.45;;;15.80;72.20;;;;;;5058762;28;20028;-86
2023/10/06 12:16:25;;;;;;;5.25;2.80;;;15.90;73.10;;;;;;5048360;28;20025;-87
2023/10/06 12:18:51;;;;;;;6.20;2.97;;;15.90;73.30;;;;;;5051347;28;20128;-86
2023/10/06 12:21:17;;;;;;;7.07;3.03;;;16.10;71.60;;;;;;5052020;28;20052;-86
2023/10/06 12:23:44;;;;;;;8.57;3.40;;;16.10;69.30;;;;;;5052032;28;20029;-87
2023/10/06 12:26:10;;;;;;;6.78;3.28;;;16.20;70.60;;;;;;5050610;28;20376;-86
2023/10/06 12:28:38;;;;;;;8.98;3.13;;;16.30;69.80;;;;;;5049917;28;20478;-87
2023/10/06 12:31:05;;;;;;;7.10;3.08;;;16.30;67.80;;;;;;5050079;28;20518;-79
2023/10/06 12:33:32;;;;;;;9.73;2.95;;;16.40;66.70;;;;;;5053040;28;20127;-79
2023/10/06 12:35:58;;;;;;;5.43;2.55;;;16.60;68.70;;;;;;5052898;28;20036;-79
2023/10/06 12:38:26;;;;;;;6.90;2.58;;;16.60;66.80;;;;;;5047869;28;20425;-78
2023/10/06 12:40:52;;;;;;;4.38;2.75;;;16.80;67.50;;;;;;5051644;28;20049;-85
2023/10/06 12:43:19;;;;;;;7.03;3.08;;;16.80;67.60;;;;;;5055736;28;20017;-76
2023/10/06 12:45:45;;;;;;;5.72;3.55;;;16.80;67.10;;;;;;5052394;28;20035;-76
2023/10/06 12:48:11;;;;;;;8.77;5.07;;;16.80;68.20;;;;;;5058331;28;20016;-76
2023/10/06 12:50:40;;;;;;;8.20;5.05;;;16.70;67.60;;;;;;5049598;28;20041;-76
2023/10/06 12:53:10;;;;;;;6.80;3.92;;;16.80;69.40;;;;;;5053223;28;20017;-78
2023/10/06 12:55:41;;;;;;;8.02;2.92;;;16.70;69.20;;;;;;5071207;28;20183;-78
2023/10/06 12:58:11;;;;;;;5.50;2.50;;;16.60;70.80;;;;;;5063865;28;20440;-78
2023/10/06 13:00:38;;;;;;;6.70;3.28;;;16.60;70.90;;;;;;5058503;28;20016;-78